Time;durP1;ratioP1;P1;durP2;ratioP2;P2;SDS_P1;SDS_P2;PMS_P1;PMS_P2;Temp;Humidity;BMP_temperature;BMP_pressure;BME280_temperature;BME280_humidity;BME280_pressure;Samples;Min_cycle;Max_cycle;Signal;HPM_P1;HPM_P2
2022/02/16 00:01:28;;;;;;;133.80;52.27;;;2.40;99.90;;;;;;5102215;28;20207;-69
2022/02/16 00:04:17;;;;;;;129.27;49.00;;;2.50;99.90;;;;;;5095658;28;20686;-69
2022/02/16 00:07:05;;;;;;;159.20;59.53;;;2.40;99.90;;;;;;5097363;28;20283;-69
2022/02/16 00:09:52;;;;;;;131.07;50.47;;;2.50;99.90;;;;;;5084341;28;20223;-69
2022/02/16 00:12:40;;;;;;;123.27;49.73;;;2.50;99.90;;;;;;5086843;28;20575;-68
2022/02/16 00:15:28;;;;;;;126.10;48.30;;;2.50;99.90;;;;;;5085700;28;20329;-69
2022/02/16 00:18:16;;;;;;;115.63;47.70;;;2.50;99.90;;;;;;5088743;28;20211;-69
2022/02/16 00:21:05;;;;;;;120.53;48.30;;;2.50;99.90;;;;;;5095399;28;20695;-69
2022/02/16 00:23:53;;;;;;;117.53;47.57;;;2.50;99.90;;;;;;5106968;28;20219;-69
2022/02/16 00:26:40;;;;;;;111.67;47.73;;;2.50;99.90;;;;;;5099054;28;20196;-68
2022/02/16 00:29:28;;;;;;;113.93;48.50;;;2.60;99.90;;;;;;5090373;28;20199;-69
2022/02/16 00:32:15;;;;;;;124.13;50.07;;;2.60;99.90;;;;;;5085923;28;20235;-69
2022/02/16 00:35:03;;;;;;;121.87;49.40;;;2.60;99.90;;;;;;5090154;28;20333;-69
2022/02/16 00:37:52;;;;;;;117.80;49.27;;;2.60;99.90;;;;;;5100574;28;20219;-69
2022/02/16 00:40:39;;;;;;;126.60;48.27;;;2.60;99.90;;;;;;5091840;28;20204;-68
2022/02/16 00:43:27;;;;;;;121.53;50.07;;;2.70;99.90;;;;;;5086664;28;20655;-69
2022/02/16 00:46:14;;;;;;;112.67;45.93;;;2.70;99.90;;;;;;5085181;28;20192;-69
2022/02/16 00:49:02;;;;;;;120.23;48.20;;;2.70;99.90;;;;;;5094151;28;20223;-69
2022/02/16 00:51:49;;;;;;;113.73;48.13;;;2.70;99.90;;;;;;5095166;28;20207;-69
2022/02/16 00:54:40;;;;;;;111.67;47.10;;;2.70;99.90;;;;;;5095103;28;20237;-69
2022/02/16 00:57:27;;;;;;;107.10;46.40;;;2.70;99.90;;;;;;5086645;28;20200;-69
2022/02/16 01:00:16;;;;;;;110.23;46.30;;;2.80;99.90;;;;;;5084549;28;20204;-69
2022/02/16 01:03:03;;;;;;;108.67;46.07;;;2.80;99.90;;;;;;5097831;28;20218;-69
2022/02/16 01:05:51;;;;;;;117.27;47.67;;;2.80;99.90;;;;;;5091372;28;20411;-69
2022/02/16 01:08:38;;;;;;;114.07;46.50;;;2.80;99.90;;;;;;5091993;28;20659;-69
2022/02/16 01:11:27;;;;;;;125.23;48.03;;;2.80;99.90;;;;;;5095224;28;20247;-68
2022/02/16 01:14:14;;;;;;;122.07;49.10;;;2.80;99.90;;;;;;5084274;28;20599;-69
2022/02/16 01:17:02;;;;;;;119.37;50.13;;;2.80;99.90;;;;;;5091128;28;20345;-69
2022/02/16 01:19:49;;;;;;;129.37;50.70;;;2.80;99.90;;;;;;5091745;28;20314;-68
2022/02/16 01:22:37;;;;;;;133.33;51.67;;;2.90;99.90;;;;;;5086832;28;20299;-68
2022/02/16 01:25:25;;;;;;;144.00;59.90;;;2.90;99.90;;;;;;5085029;28;20278;-69
2022/02/16 01:28:17;;;;;;;148.60;60.17;;;2.90;99.90;;;;;;5090276;28;20192;-68
2022/02/16 01:31:06;;;;;;;128.50;52.20;;;2.90;99.90;;;;;;5096848;28;20218;-69
2022/02/16 01:33:56;;;;;;;132.07;54.87;;;2.80;99.90;;;;;;5088934;28;20365;-69
2022/02/16 01:36:45;;;;;;;138.60;55.80;;;2.80;99.90;;;;;;5090181;28;20200;-69
2022/02/16 01:39:35;;;;;;;134.23;55.47;;;2.80;99.90;;;;;;5101981;28;20244;-69
2022/02/16 01:42:23;;;;;;;130.20;53.00;;;2.80;99.90;;;;;;5084177;28;20679;-69
2022/02/16 01:45:13;;;;;;;123.50;50.50;;;2.80;99.90;;;;;;5088994;28;20559;-69
2022/02/16 01:48:02;;;;;;;125.93;49.43;;;2.80;99.90;;;;;;5092174;28;20284;-69
2022/02/16 01:50:52;;;;;;;113.93;47.70;;;2.80;99.90;;;;;;5088763;28;21850;-68
2022/02/16 01:53:41;;;;;;;108.83;48.10;;;2.80;99.90;;;;;;5089690;28;20342;-69
2022/02/16 01:56:28;;;;;;;120.10;49.03;;;2.80;99.90;;;;;;5086206;28;20218;-69
2022/02/16 01:59:17;;;;;;;114.90;47.57;;;2.80;99.90;;;;;;5083427;28;20191;-69
2022/02/16 02:02:07;;;;;;;114.27;46.17;;;2.80;99.90;;;;;;5095684;28;20224;-69
2022/02/16 02:04:54;;;;;;;110.10;45.97;;;2.80;99.90;;;;;;5095529;28;20195;-68
2022/02/16 02:07:42;;;;;;;102.83;44.43;;;2.70;99.90;;;;;;5089368;28;20562;-69
2022/02/16 02:10:29;;;;;;;110.73;46.00;;;2.70;99.90;;;;;;5084368;28;20730;-69
2022/02/16 02:13:17;;;;;;;110.80;46.07;;;2.70;99.90;;;;;;5084448;28;20206;-69
2022/02/16 02:16:05;;;;;;;116.33;45.13;;;2.70;99.90;;;;;;5088688;28;20207;-69
2022/02/16 02:18:54;;;;;;;104.63;42.47;;;2.70;99.90;;;;;;5088211;28;20208;-69
2022/02/16 02:21:46;;;;;;;95.90;41.80;;;2.70;99.90;;;;;;5095378;28;20300;-69
2022/02/16 02:24:33;;;;;;;96.63;40.87;;;2.70;99.90;;;;;;5095531;28;20211;-69
2022/02/16 02:27:21;;;;;;;100.20;40.93;;;2.80;99.90;;;;;;5084007;28;20202;-69
2022/02/16 02:30:09;;;;;;;95.50;41.60;;;2.80;99.90;;;;;;5088377;28;20231;-69
2022/02/16 02:32:57;;;;;;;112.07;45.70;;;2.70;99.90;;;;;;5104199;28;20558;-69
2022/02/16 02:35:44;;;;;;;106.80;44.40;;;2.70;99.90;;;;;;5105609;28;20210;-69
2022/02/16 02:38:33;;;;;;;90.50;39.20;;;2.70;99.90;;;;;;5100052;28;20269;-69
2022/02/16 02:41:21;;;;;;;96.03;39.50;;;2.60;99.90;;;;;;5098115;28;20199;-69
2022/02/16 02:44:08;;;;;;;95.33;39.67;;;2.60;99.90;;;;;;5092363;28;20654;-69
2022/02/16 02:46:56;;;;;;;94.60;41.03;;;2.60;99.90;;;;;;5097337;28;20568;-68
2022/02/16 02:49:45;;;;;;;100.13;40.10;;;2.60;99.90;;;;;;5088829;28;20228;-69
2022/02/16 02:52:34;;;;;;;88.33;38.93;;;2.60;99.90;;;;;;5088063;28;20554;-68
2022/02/16 02:55:24;;;;;;;92.73;37.57;;;2.60;99.90;;;;;;5084051;28;20192;-69
2022/02/16 02:58:11;;;;;;;95.63;38.43;;;2.60;99.90;;;;;;5078448;28;20203;-69
2022/02/16 03:00:59;;;;;;;88.60;37.67;;;2.50;99.90;;;;;;5087047;28;20245;-69
2022/02/16 03:03:47;;;;;;;84.87;37.20;;;2.60;99.90;;;;;;5084976;28;20220;-69
2022/02/16 03:06:34;;;;;;;87.67;37.43;;;2.60;99.90;;;;;;5077875;28;20651;-69
2022/02/16 03:09:22;;;;;;;94.13;38.20;;;2.70;99.90;;;;;;5083725;28;20212;-69
2022/02/16 03:12:11;;;;;;;93.00;38.70;;;2.60;99.90;;;;;;5096377;28;20226;-69
2022/02/16 03:14:58;;;;;;;96.33;40.83;;;2.60;99.90;;;;;;5088471;28;20199;-69
2022/02/16 03:17:46;;;;;;;104.10;42.90;;;2.70;99.90;;;;;;5093566;28;20290;-69
2022/02/16 03:20:33;;;;;;;89.70;38.43;;;2.70;99.90;;;;;;5089199;28;20364;-69
2022/02/16 03:23:21;;;;;;;101.50;43.10;;;2.60;99.90;;;;;;5083317;28;20265;-69
2022/02/16 03:26:08;;;;;;;104.53;42.63;;;2.60;99.90;;;;;;5095248;28;20559;-69
2022/02/16 03:28:57;;;;;;;91.73;40.00;;;2.60;99.90;;;;;;5087889;28;20208;-68
2022/02/16 03:31:46;;;;;;;95.50;39.80;;;2.60;99.90;;;;;;5088881;28;20189;-69
2022/02/16 03:34:34;;;;;;;91.97;39.60;;;2.60;99.90;;;;;;5088408;28;20223;-69
2022/02/16 03:37:21;;;;;;;96.87;40.60;;;2.50;99.90;;;;;;5087426;28;20196;-69
2022/02/16 03:40:09;;;;;;;93.80;38.13;;;2.50;99.90;;;;;;5099429;28;20625;-69
2022/02/16 03:42:57;;;;;;;93.63;37.57;;;2.60;99.90;;;;;;5087160;28;20220;-69
2022/02/16 03:45:46;;;;;;;93.87;39.30;;;2.60;99.90;;;;;;5093919;28;20196;-69
2022/02/16 03:48:33;;;;;;;92.00;38.90;;;2.60;99.90;;;;;;5096356;28;20235;-69
2022/02/16 03:51:21;;;;;;;96.23;41.00;;;2.50;99.90;;;;;;5086907;28;20283;-69
2022/02/16 03:54:08;;;;;;;102.90;42.17;;;2.50;99.90;;;;;;5095851;28;20199;-69
2022/02/16 03:56:56;;;;;;;89.13;37.73;;;2.50;99.90;;;;;;5091713;28;20220;-69
2022/02/16 03:59:43;;;;;;;87.03;37.33;;;2.40;99.90;;;;;;5098189;28;20203;-69
2022/02/16 04:02:32;;;;;;;92.20;39.47;;;2.50;99.90;;;;;;5092044;28;20357;-69
2022/02/16 04:05:20;;;;;;;88.17;37.43;;;2.40;99.90;;;;;;5093418;28;20202;-69
2022/02/16 04:08:07;;;;;;;92.87;38.50;;;2.50;99.90;;;;;;5094196;28;20245;-69
2022/02/16 04:10:55;;;;;;;80.83;34.53;;;2.70;99.90;;;;;;5100037;28;20692;-69
2022/02/16 04:13:42;;;;;;;89.70;37.97;;;2.70;99.90;;;;;;5100046;28;20564;-68
2022/02/16 04:16:30;;;;;;;91.23;37.00;;;2.70;99.90;;;;;;5092134;28;20686;-69
2022/02/16 04:19:19;;;;;;;84.60;37.50;;;2.80;99.90;;;;;;5092429;28;20192;-69
2022/02/16 04:22:06;;;;;;;86.67;39.13;;;3.00;99.90;;;;;;5090596;28;20220;-69
2022/02/16 04:24:55;;;;;;;91.23;36.80;;;3.10;99.90;;;;;;5089855;28;20248;-69
2022/02/16 04:27:42;;;;;;;85.63;36.87;;;3.20;99.90;;;;;;5090113;28;20300;-69
2022/02/16 04:30:30;;;;;;;89.00;38.17;;;3.20;99.90;;;;;;5097063;28;20725;-69
2022/02/16 04:33:18;;;;;;;89.07;37.00;;;3.30;99.90;;;;;;5092080;28;20278;-69
2022/02/16 04:36:07;;;;;;;85.40;38.60;;;3.50;99.90;;;;;;5095179;28;20207;-69
2022/02/16 04:38:54;;;;;;;88.80;39.77;;;3.60;99.90;;;;;;5100080;28;20218;-69
2022/02/16 04:41:42;;;;;;;83.30;37.13;;;3.70;99.90;;;;;;5098660;28;20200;-69
2022/02/16 04:44:29;;;;;;;89.80;37.57;;;3.70;99.90;;;;;;5089677;28;20207;-69
2022/02/16 04:47:17;;;;;;;89.90;38.73;;;3.80;99.90;;;;;;5091306;28;20676;-69
2022/02/16 04:50:06;;;;;;;82.83;36.17;;;3.80;99.90;;;;;;5096420;28;20266;-69
2022/02/16 04:52:55;;;;;;;91.30;37.67;;;3.80;99.90;;;;;;5091123;28;20577;-69
2022/02/16 04:55:42;;;;;;;90.13;38.67;;;3.90;99.90;;;;;;5091450;28;20334;-69
2022/02/16 04:58:30;;;;;;;81.20;37.40;;;4.00;99.90;;;;;;5088396;28;20214;-69
2022/02/16 05:01:20;;;;;;;79.27;36.43;;;4.00;99.90;;;;;;5090756;28;20208;-69
2022/02/16 05:04:08;;;;;;;85.57;37.63;;;4.00;99.90;;;;;;5091663;28;20214;-69
2022/02/16 05:06:56;;;;;;;87.87;37.40;;;4.00;99.90;;;;;;5097248;28;20200;-69
2022/02/16 05:09:45;;;;;;;85.87;39.07;;;4.00;99.90;;;;;;5091364;28;20225;-69
2022/02/16 05:12:33;;;;;;;88.13;38.63;;;4.10;99.90;;;;;;5087260;28;20341;-69
2022/02/16 05:15:20;;;;;;;92.70;39.67;;;4.10;99.90;;;;;;5095006;28;20195;-69
2022/02/16 05:18:08;;;;;;;89.47;38.77;;;4.10;99.90;;;;;;5086384;28;20196;-69
2022/02/16 05:20:55;;;;;;;88.13;38.57;;;4.10;99.90;;;;;;5090857;28;20203;-69
2022/02/16 05:23:43;;;;;;;87.13;38.57;;;4.10;99.90;;;;;;5090083;28;20567;-69
2022/02/16 05:26:32;;;;;;;86.97;36.53;;;4.20;99.90;;;;;;5086712;28;20203;-69
2022/02/16 05:29:19;;;;;;;83.87;36.77;;;4.20;99.90;;;;;;5094078;28;20800;-69
2022/02/16 05:32:08;;;;;;;79.23;36.67;;;4.20;99.90;;;;;;5091977;28;20208;-69
2022/02/16 05:34:55;;;;;;;83.40;37.73;;;4.10;99.90;;;;;;5090225;28;20196;-69
2022/02/16 05:37:43;;;;;;;84.47;36.77;;;4.10;99.90;;;;;;5090687;28;20229;-69
2022/02/16 05:40:30;;;;;;;80.50;34.77;;;4.10;99.90;;;;;;5087270;28;20273;-69
2022/02/16 05:43:19;;;;;;;77.07;34.63;;;4.10;99.90;;;;;;5087947;28;20312;-69
2022/02/16 05:46:07;;;;;;;83.40;37.43;;;4.10;99.90;;;;;;5089132;28;20210;-69
2022/02/16 05:48:54;;;;;;;82.00;37.13;;;4.10;99.90;;;;;;5087935;28;20234;-68
2022/02/16 05:51:42;;;;;;;85.80;36.23;;;4.10;99.90;;;;;;5088160;28;20211;-69
2022/02/16 05:54:30;;;;;;;80.63;35.23;;;4.10;99.90;;;;;;5085206;28;20199;-69
2022/02/16 05:57:17;;;;;;;76.47;32.87;;;4.20;99.90;;;;;;5090492;28;20672;-69
2022/02/16 06:00:07;;;;;;;84.40;37.13;;;4.20;99.90;;;;;;5090753;28;20283;-68
2022/02/16 06:03:38;;;;;;;87.07;37.43;;;4.10;99.90;;;;;;5090147;28;20226;-69
2022/02/16 06:06:26;;;;;;;90.67;39.33;;;4.10;99.90;;;;;;5099894;28;20536;-69
2022/02/16 06:09:13;;;;;;;93.30;41.77;;;4.00;99.90;;;;;;5103819;28;20223;-69
2022/02/16 06:12:01;;;;;;;88.10;39.33;;;4.00;99.90;;;;;;5091995;28;20260;-68
2022/02/16 06:14:48;;;;;;;90.70;41.47;;;4.00;99.90;;;;;;5090451;28;20196;-69
2022/02/16 06:17:37;;;;;;;96.70;40.87;;;4.00;99.90;;;;;;5097664;28;20202;-69
2022/02/16 06:20:25;;;;;;;91.00;41.20;;;3.90;99.90;;;;;;5106181;28;20202;-69
2022/02/16 06:23:13;;;;;;;88.40;38.73;;;3.90;99.90;;;;;;5102887;28;20317;-69
2022/02/16 06:26:01;;;;;;;90.53;40.50;;;4.00;99.90;;;;;;5102266;28;20245;-69
2022/02/16 06:28:48;;;;;;;93.13;39.50;;;4.00;99.90;;;;;;5095030;28;20673;-69
2022/02/16 06:31:36;;;;;;;95.30;39.57;;;4.00;99.90;;;;;;5094056;28;20276;-69
2022/02/16 06:34:25;;;;;;;85.63;36.80;;;4.00;99.90;;;;;;5095097;28;20191;-69
2022/02/16 06:37:12;;;;;;;95.47;41.63;;;4.00;99.90;;;;;;5092932;28;20363;-69
2022/02/16 06:40:00;;;;;;;94.57;40.03;;;4.00;99.90;;;;;;5097182;28;20204;-69
2022/02/16 06:42:47;;;;;;;103.70;41.67;;;4.00;99.90;;;;;;5088673;28;20224;-75
2022/02/16 06:45:35;;;;;;;99.70;43.67;;;4.00;99.90;;;;;;5094796;28;20202;-75
2022/02/16 06:48:23;;;;;;;110.70;44.10;;;4.10;99.90;;;;;;5094892;28;20226;-76
2022/02/16 06:51:12;;;;;;;98.80;44.20;;;4.10;99.90;;;;;;5094357;28;20200;-75
2022/02/16 06:54:00;;;;;;;101.10;42.73;;;4.10;99.90;;;;;;5103848;28;20195;-76
2022/02/16 06:56:48;;;;;;;90.20;39.83;;;4.10;99.90;;;;;;5095409;28;20234;-76
2022/02/16 06:59:35;;;;;;;77.63;34.73;;;4.20;99.90;;;;;;5092025;28;20674;-76
2022/02/16 07:02:25;;;;;;;82.33;35.77;;;4.20;99.90;;;;;;5098626;28;20201;-75
2022/02/16 07:05:12;;;;;;;77.77;33.43;;;4.30;99.90;;;;;;5097505;28;20203;-76
2022/02/16 07:08:01;;;;;;;69.37;31.33;;;4.40;99.90;;;;;;5094895;28;20635;-75
2022/02/16 07:10:49;;;;;;;80.70;34.43;;;4.50;99.90;;;;;;5088202;28;20788;-76
2022/02/16 07:13:36;;;;;;;58.17;26.33;;;4.60;99.90;;;;;;5096961;28;20195;-76
2022/02/16 07:16:24;;;;;;;57.93;26.17;;;4.70;99.90;;;;;;5091332;28;20199;-76
2022/02/16 07:19:11;;;;;;;53.10;25.77;;;4.80;99.90;;;;;;5086695;28;20229;-76
2022/02/16 07:21:59;;;;;;;49.87;22.57;;;4.90;99.90;;;;;;5097682;28;20239;-76
2022/02/16 07:24:48;;;;;;;53.63;24.77;;;5.00;99.90;;;;;;5098829;28;20218;-76
2022/02/16 07:27:36;;;;;;;55.40;25.97;;;5.20;99.90;;;;;;5100519;28;20203;-76
2022/02/16 07:30:23;;;;;;;55.43;25.83;;;5.20;99.90;;;;;;5101772;28;20206;-76
2022/02/16 07:33:11;;;;;;;55.57;24.67;;;5.30;99.90;;;;;;5100804;28;20200;-75
2022/02/16 07:35:59;;;;;;;35.30;16.67;;;5.40;99.90;;;;;;5102757;28;20192;-76
2022/02/16 07:38:46;;;;;;;48.57;21.60;;;5.50;99.90;;;;;;5098157;28;20202;-75
2022/02/16 07:41:35;;;;;;;55.93;22.47;;;5.60;99.90;;;;;;5097303;28;20277;-76
2022/02/16 07:44:23;;;;;;;46.20;20.77;;;5.60;99.90;;;;;;5100600;28;20260;-75
2022/02/16 07:47:10;;;;;;;44.07;20.20;;;5.80;99.90;;;;;;5107707;28;20400;-75
2022/02/16 07:49:58;;;;;;;38.83;16.33;;;5.90;99.90;;;;;;5103716;28;20369;-75
2022/02/16 07:52:46;;;;;;;38.50;16.63;;;6.00;99.90;;;;;;5084841;28;20212;-76
2022/02/16 07:55:34;;;;;;;38.50;18.10;;;6.00;99.90;;;;;;5093207;28;20198;-76
2022/02/16 07:58:24;;;;;;;24.73;11.53;;;6.10;99.90;;;;;;5092739;28;20203;-75
2022/02/16 08:01:11;;;;;;;30.63;13.80;;;6.10;99.90;;;;;;5093214;28;20268;-75
2022/02/16 08:04:15;;;;;;;28.17;14.57;;;6.10;97.30;;;;;;5092262;28;20303;-76
2022/02/16 08:07:04;;;;;;;31.57;14.63;;;6.20;99.00;;;;;;5086332;28;20203;-76
2022/02/16 08:09:52;;;;;;;32.53;14.80;;;6.30;98.20;;;;;;5084913;28;20698;-76
2022/02/16 08:12:52;;;;;;;32.67;15.73;;;6.50;99.70;;;;;;5091459;28;20200;-76
2022/02/16 08:15:41;;;;;;;36.63;15.10;;;6.70;97.40;;;;;;5091327;28;20202;-76
2022/02/16 08:18:29;;;;;;;31.97;15.83;;;6.90;94.80;;;;;;5075585;28;20204;-76
2022/02/16 08:21:16;;;;;;;33.90;15.43;;;7.00;93.70;;;;;;5080150;28;20205;-76
2022/02/16 08:24:04;;;;;;;34.53;14.87;;;7.10;92.20;;;;;;5081237;28;20563;-75
2022/02/16 08:26:52;;;;;;;27.53;11.83;;;7.20;91.60;;;;;;5079265;28;20211;-76
2022/02/16 08:29:39;;;;;;;23.50;11.87;;;7.20;90.90;;;;;;5085379;28;20736;-75
2022/02/16 08:32:28;;;;;;;26.13;12.63;;;7.40;86.30;;;;;;5079848;28;20209;-76
2022/02/16 08:35:16;;;;;;;16.97;7.93;;;7.40;84.10;;;;;;5076945;28;20200;-75
2022/02/16 08:38:04;;;;;;;23.03;11.03;;;7.50;82.00;;;;;;5081857;28;20669;-75
2022/02/16 08:40:51;;;;;;;24.67;12.83;;;7.60;82.10;;;;;;5083211;28;20211;-75
2022/02/16 08:43:39;;;;;;;26.10;12.80;;;7.90;81.60;;;;;;5086608;28;20229;-75
2022/02/16 08:46:26;;;;;;;27.53;12.83;;;8.00;78.80;;;;;;5077510;28;20291;-75
2022/02/16 08:49:15;;;;;;;17.40;7.50;;;8.00;76.50;;;;;;5081042;28;20386;-74
2022/02/16 08:52:03;;;;;;;20.90;10.47;;;8.00;76.70;;;;;;5079753;28;20201;-75
2022/02/16 08:54:51;;;;;;;25.53;11.90;;;8.00;73.40;;;;;;5082278;28;20197;-75
2022/02/16 08:57:40;;;;;;;18.50;7.70;;;8.00;75.30;;;;;;5088163;28;20213;-76
2022/02/16 09:00:28;;;;;;;18.73;9.37;;;8.20;71.80;;;;;;5080692;28;20214;-75
2022/02/16 09:03:15;;;;;;;18.10;7.67;;;8.10;70.90;;;;;;5079583;28;20208;-75
2022/02/16 09:06:04;;;;;;;22.17;10.03;;;8.00;71.60;;;;;;5084053;28;20746;-75
2022/02/16 09:08:52;;;;;;;19.63;7.83;;;8.00;70.00;;;;;;5079789;28;20232;-73
2022/02/16 09:11:40;;;;;;;18.60;8.70;;;7.90;68.80;;;;;;5084159;28;20226;-74
2022/02/16 09:14:27;;;;;;;20.27;9.77;;;7.80;69.90;;;;;;5081241;28;20202;-74
2022/02/16 09:17:15;;;;;;;22.30;9.73;;;7.80;71.00;;;;;;5082047;28;20324;-75
2022/02/16 09:20:47;;;;;;;22.23;9.90;;;7.90;71.10;;;;;;5077606;28;20202;-74
2022/02/16 09:23:36;;;;;;;23.87;10.23;;;7.80;70.20;;;;;;5072344;28;20221;-75
2022/02/16 09:26:23;;;;;;;20.57;8.43;;;7.80;71.60;;;;;;5083969;28;20197;-75
2022/02/16 09:29:11;;;;;;;20.43;9.80;;;7.80;69.90;;;;;;5083013;28;20206;-75
2022/02/16 09:31:59;;;;;;;16.70;8.33;;;8.00;69.50;;;;;;5079026;28;20277;-76
2022/02/16 09:34:47;;;;;;;11.67;5.47;;;8.10;68.70;;;;;;5081194;28;20198;-75
2022/02/16 09:37:34;;;;;;;11.27;4.90;;;8.10;64.20;;;;;;5077508;28;20233;-75
2022/02/16 09:40:24;;;;;;;7.30;2.90;;;8.10;63.50;;;;;;5085275;28;20295;-72
2022/02/16 09:43:11;;;;;;;6.23;3.17;;;8.10;62.10;;;;;;5077371;28;20535;-75
2022/02/16 09:46:00;;;;;;;9.80;4.83;;;8.10;60.80;;;;;;5087497;28;20193;-76
2022/02/16 09:48:49;;;;;;;6.30;3.23;;;8.10;61.60;;;;;;5091306;28;20233;-76
2022/02/16 09:51:37;;;;;;;8.50;3.43;;;8.10;60.30;;;;;;5093300;28;20674;-76
2022/02/16 09:54:24;;;;;;;8.67;3.90;;;8.20;59.90;;;;;;5067976;28;20199;-76
2022/02/16 09:57:13;;;;;;;7.30;3.77;;;8.30;59.70;;;;;;5070016;28;20249;-75
2022/02/16 10:00:02;;;;;;;8.27;2.83;;;8.60;59.30;;;;;;5081090;28;20681;-75
2022/02/16 10:02:49;;;;;;;10.07;4.37;;;8.90;58.10;;;;;;5081532;28;20211;-76
2022/02/16 10:05:37;;;;;;;10.73;3.87;;;9.30;57.80;;;;;;5009006;28;20305;-76
2022/02/16 10:08:40;;;;;;;7.93;4.17;;;9.60;56.60;;;;;;5030263;28;20589;-76
2022/02/16 10:11:28;;;;;;;7.80;3.60;;;10.10;53.90;;;;;;5026791;28;20275;-76
2022/02/16 10:14:19;;;;;;;8.13;3.60;;;10.40;53.70;;;;;;5029551;28;20204;-75
2022/02/16 10:17:17;;;;;;;9.23;3.27;;;10.40;51.90;;;;;;5025644;28;20194;-76
2022/02/16 10:20:06;;;;;;;6.93;3.17;;;10.40;52.10;;;;;;5031784;28;20378;-76
2022/02/16 10:22:56;;;;;;;6.07;3.40;;;10.30;52.20;;;;;;5025294;28;20213;-76
2022/02/16 10:25:48;;;;;;;8.30;4.67;;;10.30;53.10;;;;;;5029982;28;20236;-75
2022/02/16 10:28:42;;;;;;;8.53;3.53;;;10.50;51.10;;;;;;5028521;28;20201;-75
2022/02/16 10:31:41;;;;;;;8.63;3.70;;;10.70;51.50;;;;;;5037853;28;20213;-76
2022/02/16 10:34:48;;;;;;;11.33;4.17;;;10.90;50.90;;;;;;5034865;28;20210;-74
2022/02/16 10:37:36;;;;;;;7.83;4.37;;;11.00;49.80;;;;;;5040324;28;20199;-75
2022/02/16 10:40:24;;;;;;;9.27;4.40;;;10.90;50.70;;;;;;5042059;28;20208;-75
2022/02/16 10:43:12;;;;;;;9.00;4.50;;;11.00;50.00;;;;;;5030434;28;20202;-75
2022/02/16 10:45:59;;;;;;;9.63;4.60;;;11.30;50.10;;;;;;5027888;28;20204;-76
2022/02/16 10:48:49;;;;;;;10.07;4.47;;;11.50;49.20;;;;;;5034793;28;20264;-75
2022/02/16 10:51:36;;;;;;;7.83;3.97;;;11.50;48.70;;;;;;5011885;28;20202;-74
2022/02/16 10:54:24;;;;;;;8.93;3.83;;;11.30;48.80;;;;;;5007354;28;20201;-75
2022/02/16 10:57:11;;;;;;;9.93;4.83;;;11.20;49.10;;;;;;5011029;28;20198;-75
2022/02/16 10:59:59;;;;;;;7.13;3.50;;;10.90;49.40;;;;;;5018129;28;20211;-76
2022/02/16 11:02:48;;;;;;;8.60;4.27;;;10.90;50.30;;;;;;5014287;28;20690;-75
2022/02/16 11:05:41;;;;;;;8.97;4.60;;;11.10;49.90;;;;;;5013090;28;20217;-75
2022/02/16 11:08:31;;;;;;;12.53;5.03;;;11.30;50.00;;;;;;5016786;28;20542;-75
2022/02/16 11:11:19;;;;;;;9.53;4.30;;;11.50;50.00;;;;;;5018805;28;20223;-75
2022/02/16 11:14:07;;;;;;;9.23;3.80;;;11.70;48.40;;;;;;5016281;28;20198;-76
2022/02/16 11:16:54;;;;;;;8.33;4.20;;;12.00;48.10;;;;;;5005677;28;20215;-76
2022/02/16 11:19:42;;;;;;;9.60;4.57;;;12.20;48.70;;;;;;5013378;28;20217;-75
2022/02/16 11:22:36;;;;;;;7.60;3.40;;;12.30;47.60;;;;;;5014180;28;20218;-75
2022/02/16 11:25:27;;;;;;;7.83;3.90;;;12.20;45.80;;;;;;5020388;28;20220;-76
2022/02/16 11:28:15;;;;;;;7.27;3.77;;;12.30;46.70;;;;;;5019614;28;20243;-76
2022/02/16 11:31:02;;;;;;;7.10;3.37;;;12.30;45.90;;;;;;5017611;28;20542;-76
2022/02/16 11:34:16;;;;;;;6.50;3.37;;;12.40;46.00;;;;;;5016469;28;20250;-75
2022/02/16 11:37:05;;;;;;;5.40;2.60;;;12.60;45.60;;;;;;5001886;28;20682;-75
2022/02/16 11:40:03;;;;;;;7.13;3.17;;;12.60;43.60;;;;;;5018687;28;20225;-75
2022/02/16 11:42:58;;;;;;;9.30;3.50;;;12.60;44.10;;;;;;5016338;28;20285;-75
2022/02/16 11:45:51;;;;;;;7.67;3.47;;;12.50;42.40;;;;;;5020873;28;20693;-73
2022/02/16 11:48:49;;;;;;;7.97;2.70;;;12.10;42.40;;;;;;5024323;28;20932;-76
2022/02/16 11:51:40;;;;;;;4.80;2.63;;;11.80;43.30;;;;;;5033822;28;20213;-72
2022/02/16 11:54:55;;;;;;;7.07;3.97;;;11.60;43.40;;;;;;5033422;28;20196;-76
2022/02/16 11:57:45;;;;;;;6.50;2.83;;;11.60;44.50;;;;;;5033735;28;20199;-75
2022/02/16 12:00:35;;;;;;;8.80;4.40;;;11.50;45.00;;;;;;5039979;28;20688;-75
2022/02/16 12:03:24;;;;;;;7.67;3.23;;;11.80;45.50;;;;;;5035609;28;20214;-75
2022/02/16 12:06:13;;;;;;;6.87;4.10;;;12.00;45.20;;;;;;5036183;28;20332;-76
2022/02/16 12:09:06;;;;;;;8.47;4.30;;;12.60;46.10;;;;;;5037593;28;20205;-76
2022/02/16 12:12:11;;;;;;;9.67;3.97;;;13.00;44.40;;;;;;5034637;28;20212;-73
2022/02/16 12:15:00;;;;;;;8.80;4.50;;;12.80;43.70;;;;;;5038352;28;20211;-76
2022/02/16 12:17:48;;;;;;;10.43;4.63;;;12.50;44.40;;;;;;5036344;28;20208;-76
2022/02/16 12:20:35;;;;;;;9.03;4.57;;;12.50;45.20;;;;;;5038886;28;20296;-72
2022/02/16 12:23:23;;;;;;;10.60;5.17;;;12.60;44.90;;;;;;5037012;28;20230;-75
2022/02/16 12:26:13;;;;;;;8.63;4.67;;;12.20;45.80;;;;;;5033731;28;20973;-74
2022/02/16 12:29:02;;;;;;;9.53;5.17;;;11.80;46.00;;;;;;5035820;28;20197;-73
2022/02/16 12:31:52;;;;;;;7.00;3.93;;;11.30;46.90;;;;;;5031858;28;20205;-73
2022/02/16 12:35:08;;;;;;;11.43;5.23;;;11.00;48.10;;;;;;5037421;28;20574;-74
2022/02/16 12:37:56;;;;;;;10.40;5.43;;;10.90;48.80;;;;;;5022796;28;20207;-72
2022/02/16 12:40:43;;;;;;;12.60;6.13;;;10.90;49.70;;;;;;5034814;28;20194;-75
2022/02/16 12:43:31;;;;;;;13.07;5.90;;;11.40;49.70;;;;;;5039591;28;20671;-75
2022/02/16 12:46:19;;;;;;;9.23;4.80;;;12.10;48.60;;;;;;5036775;28;20237;-76
2022/02/16 12:49:11;;;;;;;9.97;5.27;;;12.80;47.40;;;;;;5037928;28;20241;-75
2022/02/16 12:52:00;;;;;;;11.07;5.93;;;14.00;46.40;;;;;;5035295;28;20202;-75
2022/02/16 12:54:47;;;;;;;10.67;5.57;;;14.60;44.40;;;;;;5029272;28;20202;-75
2022/02/16 12:57:37;;;;;;;13.80;6.43;;;14.60;43.80;;;;;;5030714;28;20215;-76
2022/02/16 13:03:34;;;;;;;10.30;5.17;;;14.20;43.50;;;;;;5027891;28;20229;-75
2022/02/16 13:06:26;;;;;;;12.13;6.57;;;13.90;43.80;;;;;;5035546;28;20262;-76
2022/02/16 13:09:14;;;;;;;13.67;6.33;;;14.50;44.40;;;;;;5033038;28;20206;-75
2022/02/16 13:12:02;;;;;;;10.90;5.80;;;15.40;42.00;;;;;;5034147;28;20238;-74
2022/02/16 13:14:54;;;;;;;6.90;4.37;;;15.20;41.60;;;;;;5028505;28;20200;-73
2022/02/16 13:17:48;;;;;;;10.23;5.40;;;15.10;41.00;;;;;;5029868;28;20209;-73
2022/02/16 13:20:36;;;;;;;11.50;5.77;;;15.20;40.70;;;;;;5027937;28;20216;-75
2022/02/16 13:23:26;;;;;;;11.20;5.33;;;15.60;40.20;;;;;;5028395;28;20565;-75
2022/02/16 13:26:15;;;;;;;8.70;4.60;;;16.30;39.70;;;;;;5025135;28;20309;-75
2022/02/16 13:29:03;;;;;;;9.70;4.70;;;16.80;37.50;;;;;;5028969;28;20200;-72
2022/02/16 13:31:50;;;;;;;7.87;4.27;;;17.00;37.10;;;;;;5027368;28;20196;-73
2022/02/16 13:34:50;;;;;;;7.97;4.27;;;16.40;37.00;;;;;;5027839;28;20662;-74
2022/02/16 13:38:35;;;;;;;8.03;4.63;;;16.00;37.80;;;;;;5027011;28;20213;-74
2022/02/16 13:41:25;;;;;;;9.33;4.67;;;15.80;38.30;;;;;;4984629;28;20313;-75
2022/02/16 13:44:21;;;;;;;9.47;4.70;;;15.10;38.80;;;;;;4980472;28;20340;-75
2022/02/16 13:47:16;;;;;;;8.17;3.60;;;15.30;39.80;;;;;;4980102;28;20202;-74
2022/02/16 13:50:03;;;;;;;5.57;2.73;;;14.80;39.30;;;;;;4984376;28;20238;-72
2022/02/16 13:52:51;;;;;;;6.40;3.50;;;14.30;40.40;;;;;;4984505;28;20674;-75
2022/02/16 13:55:50;;;;;;;5.43;3.27;;;14.70;39.10;;;;;;4985641;28;20247;-72
2022/02/16 13:58:39;;;;;;;8.17;3.57;;;14.50;39.00;;;;;;5004675;28;20272;-75
2022/02/16 14:01:27;;;;;;;6.13;3.77;;;14.90;39.10;;;;;;5026916;28;20320;-74
2022/02/16 14:04:16;;;;;;;7.17;3.23;;;16.20;37.70;;;;;;5023135;28;20279;-75
2022/02/16 14:07:05;;;;;;;7.50;3.60;;;17.60;35.50;;;;;;5026186;28;20195;-75
2022/02/16 14:09:53;;;;;;;7.63;3.33;;;18.30;32.90;;;;;;5023176;28;20225;-75
2022/02/16 14:12:41;;;;;;;8.70;3.20;;;18.50;32.50;;;;;;5027103;28;20214;-75
2022/02/16 14:15:30;;;;;;;4.00;2.53;;;16.80;33.60;;;;;;5026285;28;20205;-73
2022/02/16 14:18:17;;;;;;;7.07;3.40;;;15.10;36.00;;;;;;5029624;28;20200;-74
2022/02/16 14:21:13;;;;;;;6.33;3.30;;;14.20;37.30;;;;;;5026664;28;20570;-75
2022/02/16 14:24:01;;;;;;;6.23;2.57;;;13.40;39.20;;;;;;5029144;28;20288;-75
2022/02/16 14:26:49;;;;;;;8.00;3.03;;;13.20;40.20;;;;;;5020799;28;20218;-75
2022/02/16 14:29:37;;;;;;;5.23;2.90;;;12.80;40.60;;;;;;5023130;28;20199;-73
2022/02/16 14:32:26;;;;;;;6.60;3.23;;;11.80;41.80;;;;;;5024504;28;20733;-75
2022/02/16 14:35:14;;;;;;;7.43;2.90;;;12.40;42.20;;;;;;5025743;28;20200;-75